Time;durP1;ratioP1;P1;durP2;ratioP2;P2;SDS_P1;SDS_P2;PMS_P1;PMS_P2;Temp;Humidity;BMP_temperature;BMP_pressure;BME280_temperature;BME280_humidity;BME280_pressure;Samples;Min_cycle;Max_cycle;Signal;HPM_P1;HPM_P2
2022/06/29 00:01:23;;;;;;;;;;;;;;;18.09;82.48;95554.72;5136149;27;1015;-48
2022/06/29 00:03:51;;;;;;;;;;;;;;;17.75;83.75;95545.50;5136405;27;1909;-48
2022/06/29 00:06:20;;;;;;;;;;;;;;;17.58;84.48;95549.53;5135727;27;1242;-47
2022/06/29 00:08:46;;;;;;;;;;;;;;;17.65;84.98;95542.31;5136174;27;1032;-48
2022/06/29 00:11:12;;;;;;;;;;;;;;;17.88;84.91;95543.97;5136164;27;1016;-48
2022/06/29 00:13:38;;;;;;;;;;;;;;;18.02;83.94;95542.19;5136315;27;1060;-48
2022/06/29 00:16:04;;;;;;;;;;;;;;;17.81;83.33;95540.34;5136020;27;1059;-48
2022/06/29 00:18:30;;;;;;;;;;;;;;;17.41;84.60;95545.41;5136105;27;1044;-48
2022/06/29 00:20:56;;;;;;;;;;;;;;;17.24;85.53;95550.25;5135906;27;981;-48
2022/06/29 00:23:23;;;;;;;;;;;;;;;17.27;85.49;95548.00;5135704;27;1909;-48
2022/06/29 00:25:48;;;;;;;;;;;;;;;17.37;85.72;95545.78;5136124;27;1020;-48
2022/06/29 00:28:15;;;;;;;;;;;;;;;17.59;84.94;95543.09;5135865;27;1028;-48
2022/06/29 00:30:41;;;;;;;;;;;;;;;17.72;84.50;95545.91;5135864;27;1047;-48
2022/06/29 00:33:07;;;;;;;;;;;;;;;17.84;84.77;95546.22;5135625;27;989;-48
2022/06/29 00:35:33;;;;;;;;;;;;;;;17.89;84.38;95553.75;5135472;27;1071;-48
2022/06/29 00:37:59;;;;;;;;;;;;;;;17.95;84.48;95550.28;5135456;27;1016;-48
2022/06/29 00:40:25;;;;;;;;;;;;;;;17.96;83.51;95549.22;5135835;27;999;-48
2022/06/29 00:42:51;;;;;;;;;;;;;;;17.90;83.85;95555.44;5145471;27;1998;-48
2022/06/29 00:45:17;;;;;;;;;;;;;;;17.51;82.89;95557.59;5156369;27;1043;-48
2022/06/29 00:47:43;;;;;;;;;;;;;;;17.26;84.23;95559.81;5137766;27;1060;-48
2022/06/29 00:50:09;;;;;;;;;;;;;;;17.36;84.55;95557.66;5156098;27;1027;-48
2022/06/29 00:52:37;;;;;;;;;;;;;;;17.47;83.69;95555.44;5155864;27;969;-48
2022/06/29 00:55:05;;;;;;;;;;;;;;;17.21;83.88;95559.59;5156183;27;1023;-48
2022/06/29 00:57:31;;;;;;;;;;;;;;;17.17;84.51;95551.03;5156035;27;1006;-48
2022/06/29 00:59:58;;;;;;;;;;;;;;;17.16;84.22;95549.34;5155984;27;1028;-48
2022/06/29 01:02:28;;;;;;;;;;;;;;;17.27;84.12;95545.28;5156155;27;1917;-48
2022/06/29 01:04:55;;;;;;;;;;;;;;;17.30;83.99;95535.97;5156069;27;1027;-48
2022/06/29 01:07:23;;;;;;;;;;;;;;;17.25;84.42;95536.53;5155411;27;1103;-48
2022/06/29 01:09:50;;;;;;;;;;;;;;;17.27;84.87;95533.66;5155786;27;1076;-48
2022/06/29 01:12:16;;;;;;;;;;;;;;;17.30;85.32;95538.66;5154883;27;1032;-48
2022/06/29 01:14:43;;;;;;;;;;;;;;;17.47;84.48;95533.81;5155826;27;1012;-48
2022/06/29 01:17:10;;;;;;;;;;;;;;;17.55;84.30;95528.31;5155884;27;1048;-48
2022/06/29 01:19:37;;;;;;;;;;;;;;;17.45;83.46;95517.78;5155619;27;952;-48
2022/06/29 01:22:09;;;;;;;;;;;;;;;17.42;82.90;95507.38;5155257;27;1917;-47
2022/06/29 01:24:36;;;;;;;;;;;;;;;17.18;83.42;95505.91;5155478;27;1119;-47
2022/06/29 01:27:02;;;;;;;;;;;;;;;16.93;85.23;95521.69;5155439;27;1015;-48
2022/06/29 01:29:29;;;;;;;;;;;;;;;16.81;85.22;95528.56;5155421;27;1872;-48
2022/06/29 01:31:55;;;;;;;;;;;;;;;16.82;85.98;95535.66;5155333;27;1027;-48
2022/06/29 01:34:22;;;;;;;;;;;;;;;17.21;84.99;95534.44;5154990;27;1122;-47
2022/06/29 01:36:48;;;;;;;;;;;;;;;17.15;84.75;95534.16;5155474;27;988;-47
2022/06/29 01:39:14;;;;;;;;;;;;;;;17.13;85.32;95532.66;5155244;27;968;-47
2022/06/29 01:41:40;;;;;;;;;;;;;;;17.19;85.30;95542.72;5155276;27;1082;-47
2022/06/29 01:44:06;;;;;;;;;;;;;;;17.31;85.10;95530.38;5134313;27;1985;-47
2022/06/29 01:46:32;;;;;;;;;;;;;;;17.37;84.60;95523.34;5134510;27;1035;-47
2022/06/29 01:48:58;;;;;;;;;;;;;;;17.50;84.28;95523.47;5134233;27;1026;-47
2022/06/29 01:51:24;;;;;;;;;;;;;;;17.42;85.31;95523.59;5134867;27;925;-47
2022/06/29 01:53:50;;;;;;;;;;;;;;;17.41;84.90;95527.31;5134440;27;981;-47
2022/06/29 01:56:16;;;;;;;;;;;;;;;17.47;84.83;95523.00;5134447;27;941;-47
2022/06/29 01:58:43;;;;;;;;;;;;;;;17.37;84.47;95518.78;5134323;27;1047;-47
2022/06/29 02:01:09;;;;;;;;;;;;;;;17.17;83.87;95517.78;5134200;28;1083;-48
2022/06/29 02:03:35;;;;;;;;;;;;;;;16.83;84.59;95513.91;5133975;28;1906;-48
2022/06/29 02:06:02;;;;;;;;;;;;;;;16.74;85.78;95518.53;5134063;28;1100;-48
2022/06/29 02:08:28;;;;;;;;;;;;;;;16.83;85.01;95515.72;5134093;28;1103;-47
2022/06/29 02:10:54;;;;;;;;;;;;;;;16.94;84.65;95502.59;5134225;28;1901;-47
2022/06/29 02:13:20;;;;;;;;;;;;;;;17.01;84.90;95509.91;5134024;28;1061;-48
2022/06/29 02:15:46;;;;;;;;;;;;;;;16.89;84.97;95507.72;5134161;28;1099;-48
2022/06/29 02:18:12;;;;;;;;;;;;;;;16.80;85.09;95516.94;5133816;28;1099;-48
2022/06/29 02:20:38;;;;;;;;;;;;;;;16.75;85.60;95514.81;5134133;28;1099;-48
2022/06/29 02:23:04;;;;;;;;;;;;;;;16.78;85.57;95508.19;5133969;27;1984;-48
2022/06/29 02:25:30;;;;;;;;;;;;;;;16.83;85.63;95502.22;5137791;27;991;-47
2022/06/29 02:27:56;;;;;;;;;;;;;;;16.79;85.48;95494.50;5138201;27;953;-47
2022/06/29 02:34:43;;;;;;;;;;;;;;;16.61;85.64;95490.56;5138118;27;1079;-48
2022/06/29 02:35:53;;;;;;;;;;;;;;;16.34;85.64;95496.47;5138106;27;1020;-47
2022/06/29 02:38:19;;;;;;;;;;;;;;;16.13;86.93;95502.63;5137744;27;1008;-47
2022/06/29 02:40:45;;;;;;;;;;;;;;;16.07;86.82;95492.59;5138032;27;957;-48
2022/06/29 02:43:11;;;;;;;;;;;;;;;16.25;86.61;95502.16;5150445;27;1901;-47
2022/06/29 02:45:37;;;;;;;;;;;;;;;16.37;85.29;95506.91;5158574;27;991;-48
2022/06/29 02:48:03;;;;;;;;;;;;;;;16.37;85.18;95514.13;5158639;27;1034;-47
2022/06/29 02:50:29;;;;;;;;;;;;;;;16.35;85.00;95516.19;5158479;27;1928;-47
2022/06/29 02:52:55;;;;;;;;;;;;;;;16.17;85.00;95519.28;5158580;27;1000;-47
2022/06/29 02:55:21;;;;;;;;;;;;;;;16.10;85.56;95523.75;5158188;27;1059;-47
2022/06/29 02:57:47;;;;;;;;;;;;;;;16.06;86.33;95520.56;5158363;27;1020;-47
2022/06/29 03:00:14;;;;;;;;;;;;;;;15.98;86.58;95517.97;5158046;27;1040;-47
2022/06/29 03:02:40;;;;;;;;;;;;;;;15.96;86.14;95517.34;5158478;27;1926;-48
2022/06/29 03:05:06;;;;;;;;;;;;;;;16.11;86.50;95514.63;5157983;27;991;-48
2022/06/29 03:07:32;;;;;;;;;;;;;;;16.24;86.20;95505.88;5158089;27;1071;-48
2022/06/29 03:09:58;;;;;;;;;;;;;;;16.33;86.07;95516.41;5158053;27;1036;-48
2022/06/29 03:12:24;;;;;;;;;;;;;;;16.56;85.02;95510.88;5139624;27;1032;-48
2022/06/29 03:14:50;;;;;;;;;;;;;;;16.80;83.92;95508.84;5157821;27;1063;-48
2022/06/29 03:17:16;;;;;;;;;;;;;;;16.75;84.80;95512.13;5158135;27;1031;-48
2022/06/29 03:19:42;;;;;;;;;;;;;;;16.66;85.42;95509.72;5157930;27;1051;-48
2022/06/29 03:22:09;;;;;;;;;;;;;;;16.61;86.33;95506.75;5157903;27;1905;-48
2022/06/29 03:24:34;;;;;;;;;;;;;;;16.52;85.40;95509.56;5157782;27;977;-48
2022/06/29 03:27:00;;;;;;;;;;;;;;;16.47;85.91;95516.56;5157818;27;988;-48
2022/06/29 03:29:27;;;;;;;;;;;;;;;16.54;86.45;95501.25;5157534;27;1044;-48
2022/06/29 03:31:53;;;;;;;;;;;;;;;16.56;86.12;95494.66;5157919;27;1024;-47
2022/06/29 03:34:19;;;;;;;;;;;;;;;16.66;86.52;95490.81;5157103;27;956;-47
2022/06/29 03:36:45;;;;;;;;;;;;;;;16.70;85.82;95481.31;5157360;27;1040;-47
2022/06/29 03:39:11;;;;;;;;;;;;;;;16.51;86.03;95482.75;5157354;27;1027;-48
2022/06/29 03:41:37;;;;;;;;;;;;;;;16.39;87.08;95479.72;5157936;27;1027;-48
2022/06/29 03:44:03;;;;;;;;;;;;;;;16.54;87.00;95485.06;5118488;27;1991;-48
2022/06/29 03:46:29;;;;;;;;;;;;;;;16.70;86.11;95484.84;5136976;27;1010;-47
2022/06/29 03:48:55;;;;;;;;;;;;;;;16.73;86.43;95484.47;5136742;27;992;-47
2022/06/29 03:51:21;;;;;;;;;;;;;;;16.81;86.58;95494.31;5136596;27;1143;-47
2022/06/29 03:53:47;;;;;;;;;;;;;;;16.97;86.56;95493.25;5136695;27;1004;-47
2022/06/29 03:56:13;;;;;;;;;;;;;;;17.31;86.58;95499.81;5136324;27;1835;-47
2022/06/29 03:58:40;;;;;;;;;;;;;;;17.52;86.19;95512.47;5136428;27;1060;-48
2022/06/29 04:01:06;;;;;;;;;;;;;;;17.60;85.11;95516.88;5136406;27;965;-47
2022/06/29 04:03:32;;;;;;;;;;;;;;;17.71;85.90;95509.06;5136542;27;1918;-47
2022/06/29 04:05:58;;;;;;;;;;;;;;;17.85;85.18;95514.59;5135860;27;1858;-47
2022/06/29 04:08:24;;;;;;;;;;;;;;;17.85;85.15;95504.63;5136237;27;984;-48
2022/06/29 04:10:50;;;;;;;;;;;;;;;18.00;84.68;95512.63;5136111;27;1075;-48
2022/06/29 04:13:16;;;;;;;;;;;;;;;18.18;83.70;95519.41;5136068;27;996;-48
2022/06/29 04:15:43;;;;;;;;;;;;;;;18.32;84.12;95511.13;5136151;27;969;-48
2022/06/29 04:18:09;;;;;;;;;;;;;;;18.41;83.92;95510.97;5135970;27;1079;-48
2022/06/29 04:23:19;;;;;;;;;;;;;;;18.50;82.48;95507.91;5135936;27;1909;-48
2022/06/29 04:25:45;;;;;;;;;;;;;;;18.63;82.23;95511.69;5135765;27;1166;-48
2022/06/29 04:28:11;;;;;;;;;;;;;;;18.82;81.59;95512.81;5136072;27;960;-48
2022/06/29 04:30:37;;;;;;;;;;;;;;;18.91;79.58;95504.34;5135857;27;1060;-48
2022/06/29 04:33:03;;;;;;;;;;;;;;;19.03;79.19;95503.72;5135844;27;988;-48
2022/06/29 04:35:29;;;;;;;;;;;;;;;19.06;79.51;95501.41;5135524;27;1077;-47
2022/06/29 04:37:55;;;;;;;;;;;;;;;19.23;79.30;95501.88;5135759;27;1043;-48
2022/06/29 04:40:21;;;;;;;;;;;;;;;19.22;78.69;95499.38;5135332;27;1028;-48
2022/06/29 04:42:47;;;;;;;;;;;;;;;19.25;78.58;95513.34;5145121;27;1988;-48
2022/06/29 04:48:01;;;;;;;;;;;;;;;19.42;78.87;95510.25;5155512;27;1051;-48
2022/06/29 04:50:27;;;;;;;;;;;;;;;19.51;79.35;95511.72;5155963;27;912;-48
2022/06/29 04:52:53;;;;;;;;;;;;;;;19.54;79.31;95508.59;5156084;27;1044;-48
2022/06/29 04:55:20;;;;;;;;;;;;;;;19.78;78.06;95511.72;5156059;27;957;-48
2022/06/29 04:57:46;;;;;;;;;;;;;;;19.70;77.28;95508.16;5156221;27;985;-48
2022/06/29 05:00:12;;;;;;;;;;;;;;;19.78;79.35;95506.31;5155862;27;1000;-48
2022/06/29 05:02:38;;;;;;;;;;;;;;;19.87;79.39;95502.34;5155973;27;1909;-48
2022/06/29 05:05:04;;;;;;;;;;;;;;;19.87;77.62;95496.91;5155476;27;1010;-48
2022/06/29 05:07:30;;;;;;;;;;;;;;;19.79;76.73;95492.53;5155596;27;1229;-48
2022/06/29 05:09:56;;;;;;;;;;;;;;;19.93;75.64;95493.34;5155904;27;1040;-48
2022/06/29 05:12:23;;;;;;;;;;;;;;;20.07;75.00;95497.72;5155657;27;1063;-48
2022/06/29 05:14:48;;;;;;;;;;;;;;;20.28;75.50;95499.34;5155844;27;1018;-48
2022/06/29 05:17:14;;;;;;;;;;;;;;;20.47;75.18;95500.31;5155560;27;972;-48
2022/06/29 05:19:40;;;;;;;;;;;;;;;20.47;76.31;95499.50;5155715;27;1055;-48
2022/06/29 05:22:07;;;;;;;;;;;;;;;20.50;75.16;95501.75;5155111;27;2000;-48
2022/06/29 05:24:33;;;;;;;;;;;;;;;20.62;75.00;95504.66;5155486;27;1055;-48
2022/06/29 05:26:59;;;;;;;;;;;;;;;20.70;74.49;95500.88;5155572;27;964;-48
2022/06/29 05:29:25;;;;;;;;;;;;;;;20.62;73.69;95489.22;5155676;27;948;-48
2022/06/29 05:31:52;;;;;;;;;;;;;;;20.70;75.46;95495.44;5155434;27;1031;-48
2022/06/29 05:34:18;;;;;;;;;;;;;;;20.68;75.16;95492.97;5155163;27;1002;-48
2022/06/29 05:36:44;;;;;;;;;;;;;;;20.81;73.64;95500.19;5155138;27;1039;-48
2022/06/29 05:39:10;;;;;;;;;;;;;;;20.74;76.36;95499.41;5155751;27;1055;-48
2022/06/29 05:41:36;;;;;;;;;;;;;;;20.65;75.24;95496.09;5155265;27;1023;-47
2022/06/29 05:44:04;;;;;;;;;;;;;;;20.82;76.82;95485.56;5134809;27;1909;-48
2022/06/29 05:46:31;;;;;;;;;;;;;;;21.09;74.47;95488.13;5134468;27;1048;-48
2022/06/29 05:48:57;;;;;;;;;;;;;;;21.20;73.18;95488.25;5134518;27;1015;-48
2022/06/29 05:51:23;;;;;;;;;;;;;;;21.16;74.18;95494.38;5134089;27;1071;-48
2022/06/29 05:53:49;;;;;;;;;;;;;;;21.23;72.40;95495.16;5134361;27;944;-48
2022/06/29 05:56:16;;;;;;;;;;;;;;;21.47;74.34;95492.72;5134334;27;1037;-48
2022/06/29 05:58:42;;;;;;;;;;;;;;;21.45;74.71;95501.09;5134351;27;953;-48
2022/06/29 06:01:09;;;;;;;;;;;;;;;21.53;73.10;95494.53;5134136;27;978;-48
2022/06/29 06:03:36;;;;;;;;;;;;;;;21.57;74.55;95493.03;5134229;27;1977;-48
2022/06/29 06:06:02;;;;;;;;;;;;;;;21.63;73.64;95492.19;5133551;28;1354;-48
2022/06/29 06:08:28;;;;;;;;;;;;;;;21.76;71.95;95488.50;5134446;28;1165;-48
2022/06/29 06:10:54;;;;;;;;;;;;;;;21.80;75.32;95492.44;5134223;28;1127;-48
2022/06/29 06:13:20;;;;;;;;;;;;;;;21.91;75.38;95493.59;5134220;28;967;-48
2022/06/29 06:15:47;;;;;;;;;;;;;;;21.85;74.42;95492.59;5134158;28;1052;-47
2022/06/29 06:18:13;;;;;;;;;;;;;;;21.90;75.50;95500.94;5134186;28;1010;-48
2022/06/29 06:20:39;;;;;;;;;;;;;;;22.18;74.44;95510.53;5133992;28;1086;-48
2022/06/29 06:23:06;;;;;;;;;;;;;;;22.29;73.12;95517.97;5134173;28;1988;-48
2022/06/29 06:25:32;;;;;;;;;;;;;;;22.37;72.67;95512.22;5134076;28;1103;-48
2022/06/29 06:28:00;;;;;;;;;;;;;;;22.45;73.09;95513.00;5134138;28;954;-48
2022/06/29 06:30:26;;;;;;;;;;;;;;;22.38;73.14;95510.31;5134113;28;1090;-48
2022/06/29 06:32:52;;;;;;;;;;;;;;;22.57;72.81;95492.91;5133971;28;992;-48
2022/06/29 06:35:21;;;;;;;;;;;;;;;22.57;71.59;95484.72;5133784;28;1051;-48
2022/06/29 06:37:48;;;;;;;;;;;;;;;22.54;70.75;95481.66;5133828;28;1020;-48
2022/06/29 06:42:59;;;;;;;;;;;;;;;22.65;71.19;95491.78;5144907;27;1905;-48
2022/06/29 06:45:25;;;;;;;;;;;;;;;22.81;70.59;95496.59;5154734;27;980;-48
2022/06/29 06:47:52;;;;;;;;;;;;;;;22.84;72.13;95494.47;5154431;27;961;-48
2022/06/29 06:50:18;;;;;;;;;;;;;;;22.89;71.24;95486.44;5154823;27;977;-48
2022/06/29 06:52:44;;;;;;;;;;;;;;;22.76;70.23;95485.53;5154623;27;1034;-48
2022/06/29 06:55:10;;;;;;;;;;;;;;;22.85;72.01;95482.53;5154710;27;1027;-48
2022/06/29 06:57:36;;;;;;;;;;;;;;;23.09;73.34;95480.78;5154490;27;952;-48
2022/06/29 07:00:03;;;;;;;;;;;;;;;23.09;68.62;95476.13;5154458;27;1117;-48
2022/06/29 07:02:29;;;;;;;;;;;;;;;23.21;71.46;95484.34;5154237;27;1986;-48
2022/06/29 07:04:55;;;;;;;;;;;;;;;23.28;68.38;95484.28;5154556;27;1071;-48
2022/06/29 07:07:21;;;;;;;;;;;;;;;23.35;70.10;95477.66;5154129;27;1075;-48
2022/06/29 07:09:47;;;;;;;;;;;;;;;23.17;67.59;95473.06;5155041;27;957;-48
2022/06/29 07:12:13;;;;;;;;;;;;;;;23.13;69.53;95471.88;5157958;27;1020;-48
2022/06/29 07:14:39;;;;;;;;;;;;;;;23.34;70.95;95475.16;5158178;27;998;-48
2022/06/29 07:17:05;;;;;;;;;;;;;;;23.51;69.39;95478.84;5158380;27;972;-48
2022/06/29 07:19:31;;;;;;;;;;;;;;;23.63;67.44;95469.84;5158312;27;969;-48
2022/06/29 07:21:57;;;;;;;;;;;;;;;23.86;67.21;95469.06;5158136;27;1047;-48
2022/06/29 07:24:23;;;;;;;;;;;;;;;24.07;67.63;95470.38;5157783;27;1967;-48
2022/06/29 07:26:50;;;;;;;;;;;;;;;24.18;68.40;95461.34;5157992;27;1047;-48
2022/06/29 07:29:16;;;;;;;;;;;;;;;24.15;67.84;95462.66;5157857;27;1016;-48
2022/06/29 07:31:41;;;;;;;;;;;;;;;24.17;67.43;95457.78;5157879;27;1019;-48
2022/06/29 07:34:08;;;;;;;;;;;;;;;24.26;69.45;95463.69;5157284;27;983;-48
2022/06/29 07:36:34;;;;;;;;;;;;;;;24.62;67.59;95463.69;5157981;27;972;-48
2022/06/29 07:39:00;;;;;;;;;;;;;;;24.60;64.80;95450.25;5157655;27;976;-48
2022/06/29 07:41:25;;;;;;;;;;;;;;;24.66;66.78;95454.78;5157822;27;960;-48
2022/06/29 07:43:51;;;;;;;;;;;;;;;24.78;69.69;95454.72;5138630;27;1913;-48
2022/06/29 07:46:17;;;;;;;;;;;;;;;24.94;68.20;95458.56;5136735;27;958;-48
2022/06/29 07:48:43;;;;;;;;;;;;;;;25.00;66.35;95456.78;5136571;27;1004;-48
2022/06/29 07:51:09;;;;;;;;;;;;;;;25.14;66.29;95458.16;5136633;27;1028;-48
2022/06/29 07:53:35;;;;;;;;;;;;;;;25.29;65.52;95450.25;5136707;27;1016;-48
2022/06/29 07:56:01;;;;;;;;;;;;;;;25.33;66.27;95454.13;5136707;27;1042;-48
2022/06/29 07:58:27;;;;;;;;;;;;;;;25.28;63.71;95448.56;5136511;27;981;-48
2022/06/29 08:00:54;;;;;;;;;;;;;;;25.41;63.40;95452.09;5136529;27;1094;-48
2022/06/29 08:03:19;;;;;;;;;;;;;;;25.54;62.49;95450.94;5136598;27;1996;-48
2022/06/29 08:05:46;;;;;;;;;;;;;;;25.65;62.73;95455.47;5136121;27;2009;-48
2022/06/29 08:08:12;;;;;;;;;;;;;;;25.78;63.25;95449.69;5136396;27;1060;-48
2022/06/29 08:10:38;;;;;;;;;;;;;;;25.72;60.07;95453.41;5136504;27;1047;-48
2022/06/29 08:13:04;;;;;;;;;;;;;;;25.73;61.88;95454.25;5136036;27;1040;-48
2022/06/29 08:15:30;;;;;;;;;;;;;;;25.95;62.36;95451.59;5136348;27;1109;-48
2022/06/29 08:17:56;;;;;;;;;;;;;;;26.07;62.46;95455.91;5135991;27;1048;-48
2022/06/29 08:20:22;;;;;;;;;;;;;;;26.03;58.45;95452.03;5136321;27;969;-48
2022/06/29 08:22:48;;;;;;;;;;;;;;;26.11;60.43;95450.75;5136127;27;1988;-48
2022/06/29 08:25:14;;;;;;;;;;;;;;;26.23;60.46;95453.41;5136028;27;1027;-50
2022/06/29 08:27:41;;;;;;;;;;;;;;;26.40;61.00;95454.19;5135986;27;1008;-48
2022/06/29 08:30:08;;;;;;;;;;;;;;;26.57;59.92;95453.31;5135737;27;1834;-48
2022/06/29 08:32:34;;;;;;;;;;;;;;;26.65;59.19;95453.72;5135862;27;1016;-49
2022/06/29 08:35:01;;;;;;;;;;;;;;;26.85;58.03;95455.88;5135361;27;1840;-49
2022/06/29 08:37:27;;;;;;;;;;;;;;;26.95;59.02;95454.34;5135786;27;1075;-49
2022/06/29 08:39:54;;;;;;;;;;;;;;;26.90;58.68;95446.91;5135766;27;953;-48
2022/06/29 08:42:23;;;;;;;;;;;;;;;26.99;59.56;95439.00;5141124;27;1910;-48
2022/06/29 08:44:50;;;;;;;;;;;;;;;26.81;59.85;95423.75;5156207;27;1051;-48
2022/06/29 08:47:16;;;;;;;;;;;;;;;26.84;58.48;95425.94;5156210;27;1125;-48
2022/06/29 08:49:44;;;;;;;;;;;;;;;27.07;57.61;95420.19;5156362;27;967;-49
2022/06/29 08:52:10;;;;;;;;;;;;;;;27.34;57.18;95413.88;5156386;27;1007;-48
2022/06/29 08:54:40;;;;;;;;;;;;;;;27.41;54.14;95414.50;5156166;27;968;-48
2022/06/29 08:57:07;;;;;;;;;;;;;;;27.37;53.35;95412.53;5156089;27;1099;-49
2022/06/29 08:59:34;;;;;;;;;;;;;;;27.44;53.77;95413.97;5155878;27;1036;-48
2022/06/29 09:02:00;;;;;;;;;;;;;;;27.56;54.86;95407.47;5155920;27;1083;-49
2022/06/29 09:04:26;;;;;;;;;;;;;;;27.64;52.63;95406.97;5155787;27;1909;-49
2022/06/29 09:06:54;;;;;;;;;;;;;;;27.71;49.98;95404.03;5155858;27;1905;-48
2022/06/29 09:09:20;;;;;;;;;;;;;;;27.79;52.32;95401.63;5155602;27;1098;-48
2022/06/29 09:11:48;;;;;;;;;;;;;;;27.81;51.80;95401.34;5155967;27;1071;-49
2022/06/29 09:14:16;;;;;;;;;;;;;;;27.83;51.29;95404.66;5155522;27;1019;-49
2022/06/29 09:16:51;;;;;;;;;;;;;;;27.81;50.94;95402.19;5155977;27;1274;-48
2022/06/29 09:19:17;;;;;;;;;;;;;;;27.82;49.66;95398.34;5155698;27;971;-48
2022/06/29 09:21:47;;;;;;;;;;;;;;;27.87;52.53;95399.47;5155787;27;1031;-48
2022/06/29 09:24:13;;;;;;;;;;;;;;;27.87;52.27;95404.94;5155383;27;1905;-48
2022/06/29 09:26:39;;;;;;;;;;;;;;;27.91;47.92;95406.13;5155648;27;1015;-48
2022/06/29 09:29:19;;;;;;;;;;;;;;;28.10;48.38;95403.78;5155222;27;1010;-49
2022/06/29 09:32:05;;;;;;;;;;;;;;;28.17;50.23;95402.44;5155728;27;1006;-49
2022/06/29 09:34:31;;;;;;;;;;;;;;;28.32;47.71;95400.84;5154860;27;981;-48
2022/06/29 09:36:58;;;;;;;;;;;;;;;28.32;46.58;95398.09;5155428;27;1048;-48
2022/06/29 09:39:44;;;;;;;;;;;;;;;28.27;46.86;95398.06;5155087;27;1035;-48
2022/06/29 09:42:12;;;;;;;;;;;;;;;28.13;47.01;95392.22;5151129;27;1239;-48
2022/06/29 09:44:38;;;;;;;;;;;;;;;28.10;49.29;95392.78;5134545;27;1055;-48
2022/06/29 09:47:06;;;;;;;;;;;;;;;27.95;48.96;95388.03;5134584;27;1157;-48
2022/06/29 09:49:33;;;;;;;;;;;;;;;27.99;49.93;95391.88;5134409;27;1012;-48
2022/06/29 09:52:00;;;;;;;;;;;;;;;28.05;48.89;95390.81;5134455;27;1023;-52
2022/06/29 09:54:31;;;;;;;;;;;;;;;28.23;50.00;95395.06;5134533;27;972;-48
2022/06/29 09:56:58;;;;;;;;;;;;;;;28.38;50.93;95389.63;5134891;27;991;-48
2022/06/29 10:02:35;;;;;;;;;;;;;;;28.40;50.52;95389.34;5134106;27;1996;-48
2022/06/29 10:05:04;;;;;;;;;;;;;;;28.29;47.05;95382.16;5134096;27;981;-48
2022/06/29 10:07:30;;;;;;;;;;;;;;;28.27;48.62;95378.84;5134203;28;1072;-48
2022/06/29 10:09:58;;;;;;;;;;;;;;;28.28;47.33;95383.25;5134238;28;965;-48
2022/06/29 10:15:53;;;;;;;;;;;;;;;28.50;48.59;95378.41;5099646;28;1094;-48
2022/06/29 10:18:25;;;;;;;;;;;;;;;28.55;50.14;95378.47;5134299;28;995;-48
2022/06/29 10:20:51;;;;;;;;;;;;;;;28.50;47.06;95377.59;5134117;28;1075;-48
2022/06/29 10:23:36;;;;;;;;;;;;;;;28.49;47.28;95385.00;5133964;28;1918;-48
2022/06/29 10:26:02;;;;;;;;;;;;;;;28.55;48.13;95374.88;5134092;28;1017;-48
2022/06/29 10:28:28;;;;;;;;;;;;;;;28.65;47.95;95366.66;5134308;28;1007;-49
2022/06/29 10:30:55;;;;;;;;;;;;;;;28.64;49.13;95369.69;5134132;28;953;-48
2022/06/29 10:33:31;;;;;;;;;;;;;;;28.62;45.87;95365.25;5134080;28;1043;-48
2022/06/29 10:36:06;;;;;;;;;;;;;;;28.64;44.89;95364.19;5133692;28;1069;-49
2022/06/29 10:38:55;;;;;;;;;;;;;;;28.55;44.81;95361.97;5134088;28;1087;-48
2022/06/29 10:44:06;;;;;;;;;;;;;;;28.84;47.14;95342.22;5154434;27;1898;-48
2022/06/29 10:46:51;;;;;;;;;;;;;;;28.90;46.87;95346.63;5158076;27;1010;-48
2022/06/29 10:49:17;;;;;;;;;;;;;;;29.03;45.85;95350.78;5158728;27;1040;-48
2022/06/29 10:51:43;;;;;;;;;;;;;;;29.12;45.87;95343.66;5158452;27;1083;-48
2022/06/29 10:54:26;;;;;;;;;;;;;;;29.10;47.13;95339.50;5158523;27;1078;-48
2022/06/29 10:56:52;;;;;;;;;;;;;;;28.96;45.88;95339.22;5158324;27;1097;-48
2022/06/29 10:59:30;;;;;;;;;;;;;;;28.97;48.19;95341.69;5158652;27;1056;-48
2022/06/29 11:02:15;;;;;;;;;;;;;;;28.98;47.49;95334.25;5158386;27;1003;-48
2022/06/29 11:04:42;;;;;;;;;;;;;;;29.13;48.81;95328.81;5158215;27;1939;-48
2022/06/29 11:12:54;;;;;;;;;;;;;;;29.18;45.95;95323.31;5158277;27;1033;-49
2022/06/29 11:15:42;;;;;;;;;;;;;;;29.27;48.43;95325.50;5158214;27;994;-48
2022/06/29 11:18:11;;;;;;;;;;;;;;;29.36;48.27;95324.69;5158226;27;1122;-48
2022/06/29 11:20:38;;;;;;;;;;;;;;;29.29;48.37;95329.66;5158086;27;1979;-48
2022/06/29 11:23:09;;;;;;;;;;;;;;;29.11;48.06;95319.16;5157878;27;1905;-48
2022/06/29 11:25:36;;;;;;;;;;;;;;;29.10;48.40;95311.97;5158050;27;1004;-48
2022/06/29 11:28:02;;;;;;;;;;;;;;;29.13;49.24;95312.28;5157641;27;1850;-48
2022/06/29 11:30:28;;;;;;;;;;;;;;;29.18;49.50;95312.28;5157957;27;1867;-48
2022/06/29 11:32:55;;;;;;;;;;;;;;;29.30;50.18;95312.00;5157895;27;1055;-49
2022/06/29 11:35:22;;;;;;;;;;;;;;;29.31;46.57;95310.94;5157669;27;987;-49
2022/06/29 11:37:52;;;;;;;;;;;;;;;29.17;46.39;95309.81;5157697;27;1023;-48
2022/06/29 11:40:40;;;;;;;;;;;;;;;29.13;48.18;95300.47;5157720;27;999;-48
2022/06/29 11:43:10;;;;;;;;;;;;;;;28.99;45.54;95300.97;5145122;27;2036;-49
2022/06/29 11:45:36;;;;;;;;;;;;;;;28.98;46.57;95293.81;5137084;27;1023;-48
2022/06/29 11:48:09;;;;;;;;;;;;;;;29.10;46.48;95289.94;5136748;27;986;-48
2022/06/29 11:50:41;;;;;;;;;;;;;;;29.10;46.99;95284.44;5136826;27;1071;-48
2022/06/29 11:53:07;;;;;;;;;;;;;;;29.10;47.67;95285.28;5136509;27;1004;-49
2022/06/29 11:55:43;;;;;;;;;;;;;;;29.23;48.97;95277.59;5136594;27;1045;-48
2022/06/29 11:58:10;;;;;;;;;;;;;;;29.41;47.91;95279.81;5136403;27;1092;-48
2022/06/29 12:00:39;;;;;;;;;;;;;;;29.49;48.82;95273.72;5136718;27;995;-48
2022/06/29 12:03:05;;;;;;;;;;;;;;;29.48;45.55;95279.50;5136278;27;1906;-48
2022/06/29 12:05:31;;;;;;;;;;;;;;;29.36;45.85;95277.03;5136093;27;1230;-49
2022/06/29 12:07:58;;;;;;;;;;;;;;;29.29;46.08;95269.09;5136317;27;977;-48
2022/06/29 12:10:24;;;;;;;;;;;;;;;29.35;46.50;95276.22;5136559;27;1007;-48
2022/06/29 12:12:50;;;;;;;;;;;;;;;29.45;48.00;95266.31;5117828;27;1818;-48
2022/06/29 12:15:17;;;;;;;;;;;;;;;29.54;48.73;95265.47;5136323;27;961;-48
2022/06/29 12:17:43;;;;;;;;;;;;;;;29.61;47.82;95267.91;5136189;27;1031;-49
2022/06/29 12:20:10;;;;;;;;;;;;;;;29.68;48.12;95270.38;5136088;27;1095;-49
2022/06/29 12:22:36;;;;;;;;;;;;;;;29.63;48.21;95260.19;5135961;27;1913;-49
2022/06/29 12:25:02;;;;;;;;;;;;;;;29.66;48.98;95262.41;5135977;27;1060;-49
2022/06/29 12:27:28;;;;;;;;;;;;;;;29.58;47.16;95251.97;5135850;27;992;-48
2022/06/29 12:29:55;;;;;;;;;;;;;;;29.55;48.52;95260.75;5136025;27;1095;-48
2022/06/29 12:32:21;;;;;;;;;;;;;;;29.53;47.96;95257.47;5135780;27;1007;-49
2022/06/29 12:34:47;;;;;;;;;;;;;;;29.50;47.53;95255.25;5135746;27;967;-48
2022/06/29 12:37:13;;;;;;;;;;;;;;;29.52;47.91;95253.91;5135597;27;1955;-48
2022/06/29 12:39:39;;;;;;;;;;;;;;;29.58;48.01;95257.47;5135754;27;1940;-49
2022/06/29 12:42:05;;;;;;;;;;;;;;;29.59;45.38;95248.09;5139214;27;1153;-48
2022/06/29 12:44:31;;;;;;;;;;;;;;;29.55;48.20;95249.75;5156348;27;2020;-48
2022/06/29 12:46:57;;;;;;;;;;;;;;;29.54;46.85;95251.69;5156391;27;980;-49
2022/06/29 12:49:23;;;;;;;;;;;;;;;29.60;46.31;95249.75;5156046;27;1076;-48
2022/06/29 12:51:49;;;;;;;;;;;;;;;29.57;47.01;95250.28;5156232;27;1032;-49
2022/06/29 12:54:17;;;;;;;;;;;;;;;29.63;46.97;95246.41;5156270;27;956;-49
2022/06/29 12:56:43;;;;;;;;;;;;;;;29.76;46.98;95247.78;5156190;27;1953;-49
2022/06/29 12:59:09;;;;;;;;;;;;;;;29.87;46.92;95237.56;5155859;27;1033;-49
2022/06/29 13:01:35;;;;;;;;;;;;;;;29.86;46.89;95239.50;5156249;27;1055;-49
2022/06/29 13:04:01;;;;;;;;;;;;;;;29.74;46.17;95233.47;5155575;27;1938;-49
2022/06/29 13:06:27;;;;;;;;;;;;;;;29.65;46.48;95241.44;5155875;27;1090;-49
2022/06/29 13:08:53;;;;;;;;;;;;;;;29.57;45.96;95245.59;5155057;27;1063;-49
2022/06/29 13:11:19;;;;;;;;;;;;;;;29.52;45.86;95237.38;5156034;27;1007;-49
2022/06/29 13:13:45;;;;;;;;;;;;;;;29.52;46.26;95236.53;5155854;27;1074;-49
2022/06/29 13:16:11;;;;;;;;;;;;;;;29.55;43.85;95233.22;5155897;27;973;-49
2022/06/29 13:18:37;;;;;;;;;;;;;;;29.44;44.90;95235.16;5155683;27;1010;-48
2022/06/29 13:21:03;;;;;;;;;;;;;;;29.39;44.51;95233.25;5155582;27;1099;-49
2022/06/29 13:23:29;;;;;;;;;;;;;;;29.44;43.73;95226.91;5155477;27;1998;-49
2022/06/29 13:25:55;;;;;;;;;;;;;;;29.58;46.01;95221.66;5155666;27;1032;-49